WZZ62 EDDB-LHBP
Flight info
| Callsign | WZZ62 |
|---|---|
| Flight time | 1h 3m |
| Altitude | 35000 |
| Route | ARSAP2Q ARSAP Y210 OLUMA T710 KULUV DCT DESEN DCT VALPI DCT NIT/N0390F230 M748 ARFOX |
| Aircraft | A321/M-SDE3FGHIRWY/LB1 |
Departure
| Time | 2026-05-05 10:20 |
|---|---|
| Airport | Berlin Brandenburg Airport (EDDB) |
Arrival
| Time | 2026-05-05 11:23 |
|---|---|
| Airport | Budapest Liszt Ferenc International Airport (LHBP) |
| Time | Latitude | Longitude | Altitude | Speed | Heading |
|---|---|---|---|---|---|
| 2026-05-05 09:46 | 52.36740 | 13.50571 | 150 ft | 0 kts | 158° |
| 2026-05-05 10:09 | 52.36743 | 13.50569 | 150 ft | 3 kts | 158° |
| 2026-05-05 10:09 | 52.36767 | 13.50554 | 150 ft | 4 kts | 158° |
| 2026-05-05 10:10 | 52.36789 | 13.50540 | 150 ft | 4 kts | 163° |
| 2026-05-05 10:10 | 52.36813 | 13.50537 | 150 ft | 4 kts | 207° |
| 2026-05-05 10:10 | 52.36830 | 13.50564 | 150 ft | 3 kts | 248° |
| 2026-05-05 10:10 | 52.36831 | 13.50568 | 150 ft | 0 kts | 249° |
| 2026-05-05 10:14 | 52.36831 | 13.50566 | 150 ft | 1 kts | 249° |
| 2026-05-05 10:14 | 52.36826 | 13.50547 | 150 ft | 3 kts | 249° |
| 2026-05-05 10:14 | 52.36817 | 13.50507 | 150 ft | 5 kts | 249° |
| 2026-05-05 10:14 | 52.36803 | 13.50448 | 150 ft | 7 kts | 248° |
| 2026-05-05 10:15 | 52.36784 | 13.50369 | 150 ft | 8 kts | 249° |
| 2026-05-05 10:15 | 52.36763 | 13.50273 | 150 ft | 9 kts | 257° |
| 2026-05-05 10:15 | 52.36791 | 13.50184 | 150 ft | 10 kts | 326° |
| 2026-05-05 10:15 | 52.36860 | 13.50138 | 150 ft | 10 kts | 338° |
| 2026-05-05 10:16 | 52.36898 | 13.50048 | 150 ft | 11 kts | 267° |
| 2026-05-05 10:16 | 52.36869 | 13.49923 | 150 ft | 13 kts | 248° |
| 2026-05-05 10:16 | 52.36846 | 13.49829 | 150 ft | 14 kts | 249° |
| 2026-05-05 10:16 | 52.36810 | 13.49673 | 150 ft | 15 kts | 249° |
| 2026-05-05 10:17 | 52.36770 | 13.49500 | 150 ft | 17 kts | 249° |
| 2026-05-05 10:17 | 52.36727 | 13.49310 | 150 ft | 18 kts | 249° |
| 2026-05-05 10:17 | 52.36678 | 13.49107 | 150 ft | 20 kts | 249° |
| 2026-05-05 10:17 | 52.36627 | 13.48890 | 150 ft | 21 kts | 248° |
| 2026-05-05 10:18 | 52.36572 | 13.48663 | 150 ft | 22 kts | 249° |
| 2026-05-05 10:18 | 52.36527 | 13.48472 | 150 ft | 10 kts | 249° |
| 2026-05-05 10:18 | 52.36536 | 13.48357 | 150 ft | 11 kts | 313° |
| 2026-05-05 10:18 | 52.36615 | 13.48309 | 149 ft | 13 kts | 345° |
| 2026-05-05 10:19 | 52.36693 | 13.48271 | 149 ft | 7 kts | 343° |
| 2026-05-05 10:19 | 52.36719 | 13.48287 | 149 ft | 4 kts | 53° |
| 2026-05-05 10:19 | 52.36750 | 13.48418 | 150 ft | 41 kts | 68° |
| 2026-05-05 10:19 | 52.36952 | 13.49268 | 148 ft | 117 kts | 69° |
| 2026-05-05 10:20 | 52.37322 | 13.50815 | 241 ft | 165 kts | 68° |
| 2026-05-05 10:20 | 52.37740 | 13.52497 | 1062 ft | 158 kts | 68° |
| 2026-05-05 10:20 | 52.38155 | 13.54187 | 1771 ft | 162 kts | 68° |
| 2026-05-05 10:20 | 52.38596 | 13.55949 | 2232 ft | 178 kts | 67° |
| 2026-05-05 10:21 | 52.39102 | 13.57920 | 2582 ft | 197 kts | 67° |
| 2026-05-05 10:21 | 52.39669 | 13.60077 | 2936 ft | 215 kts | 66° |
| 2026-05-05 10:21 | 52.40280 | 13.62397 | 3308 ft | 232 kts | 70° |
| 2026-05-05 10:21 | 52.40455 | 13.65132 | 3629 ft | 256 kts | 98° |
| 2026-05-05 10:22 | 52.40031 | 13.68043 | 4239 ft | 268 kts | 109° |
| 2026-05-05 10:22 | 52.39419 | 13.70952 | 5063 ft | 272 kts | 111° |
| 2026-05-05 10:22 | 52.38782 | 13.73897 | 5890 ft | 277 kts | 111° |
| 2026-05-05 10:22 | 52.38170 | 13.76918 | 6674 ft | 282 kts | 109° |
| 2026-05-05 10:23 | 52.37597 | 13.80012 | 7458 ft | 286 kts | 108° |
| 2026-05-05 10:23 | 52.37054 | 13.83183 | 8251 ft | 291 kts | 107° |
| 2026-05-05 10:23 | 52.36529 | 13.86400 | 9061 ft | 295 kts | 107° |
| 2026-05-05 10:23 | 52.36011 | 13.89667 | 9866 ft | 299 kts | 107° |
| 2026-05-05 10:24 | 52.35478 | 13.93035 | 10289 ft | 316 kts | 107° |
| 2026-05-05 10:24 | 52.34905 | 13.96644 | 10507 ft | 340 kts | 107° |
| 2026-05-05 10:24 | 52.34297 | 14.00475 | 10893 ft | 354 kts | 107° |
| 2026-05-05 10:24 | 52.33674 | 14.04407 | 11556 ft | 360 kts | 107° |
| 2026-05-05 10:25 | 52.33040 | 14.08394 | 12257 ft | 364 kts | 107° |
| 2026-05-05 10:25 | 52.32397 | 14.12428 | 12965 ft | 368 kts | 107° |
| 2026-05-05 10:25 | 52.31747 | 14.16496 | 13669 ft | 372 kts | 107° |
| 2026-05-05 10:25 | 52.31095 | 14.20560 | 14282 ft | 377 kts | 107° |
| 2026-05-05 10:26 | 52.30422 | 14.24730 | 14911 ft | 380 kts | 108° |
| 2026-05-05 10:26 | 52.29743 | 14.28924 | 15545 ft | 385 kts | 108° |
| 2026-05-05 10:26 | 52.29055 | 14.33170 | 16183 ft | 389 kts | 108° |
| 2026-05-05 10:26 | 52.28356 | 14.37463 | 16811 ft | 393 kts | 108° |
| 2026-05-05 10:27 | 52.27650 | 14.41793 | 17432 ft | 397 kts | 108° |
| 2026-05-05 10:27 | 52.26934 | 14.46176 | 18053 ft | 401 kts | 108° |
| 2026-05-05 10:27 | 52.26211 | 14.50589 | 18610 ft | 405 kts | 108° |
| 2026-05-05 10:27 | 52.25482 | 14.55050 | 19150 ft | 408 kts | 108° |
| 2026-05-05 10:28 | 52.24743 | 14.59547 | 19715 ft | 412 kts | 108° |
| 2026-05-05 10:28 | 52.23756 | 14.63911 | 20249 ft | 409 kts | 122° |
| 2026-05-05 10:28 | 52.22095 | 14.67633 | 20788 ft | 405 kts | 139° |
| 2026-05-05 10:28 | 52.20066 | 14.70821 | 21336 ft | 406 kts | 141° |
| 2026-05-05 10:29 | 52.18005 | 14.74001 | 21874 ft | 410 kts | 141° |
| 2026-05-05 10:29 | 52.15922 | 14.77193 | 22401 ft | 413 kts | 141° |
| 2026-05-05 10:29 | 52.13820 | 14.80407 | 22917 ft | 416 kts | 141° |
| 2026-05-05 10:29 | 52.11701 | 14.83645 | 23409 ft | 420 kts | 141° |
| 2026-05-05 10:30 | 52.09566 | 14.86912 | 23833 ft | 423 kts | 140° |
| 2026-05-05 10:30 | 52.07417 | 14.90208 | 24238 ft | 426 kts | 141° |
| 2026-05-05 10:30 | 52.05254 | 14.93526 | 24647 ft | 429 kts | 140° |
| 2026-05-05 10:30 | 52.03078 | 14.96862 | 25051 ft | 432 kts | 140° |
| 2026-05-05 10:31 | 52.00882 | 15.00224 | 25434 ft | 435 kts | 141° |
| 2026-05-05 10:31 | 51.98671 | 15.03599 | 25842 ft | 438 kts | 141° |
| 2026-05-05 10:31 | 51.96442 | 15.06994 | 26226 ft | 441 kts | 141° |
| 2026-05-05 10:31 | 51.94195 | 15.10408 | 26615 ft | 444 kts | 141° |
| 2026-05-05 10:32 | 51.91933 | 15.13840 | 26988 ft | 447 kts | 141° |
| 2026-05-05 10:32 | 51.89657 | 15.17295 | 27374 ft | 450 kts | 141° |
| 2026-05-05 10:32 | 51.87362 | 15.20776 | 27765 ft | 453 kts | 141° |
| 2026-05-05 10:32 | 51.85051 | 15.24270 | 28141 ft | 456 kts | 141° |
| 2026-05-05 10:33 | 51.82727 | 15.27779 | 28493 ft | 459 kts | 141° |
| 2026-05-05 10:33 | 51.80381 | 15.31313 | 28853 ft | 462 kts | 141° |
| 2026-05-05 10:33 | 51.78022 | 15.34861 | 29205 ft | 465 kts | 141° |
| 2026-05-05 10:33 | 51.75646 | 15.38429 | 29588 ft | 468 kts | 141° |
| 2026-05-05 10:34 | 51.73250 | 15.42020 | 29941 ft | 471 kts | 141° |
| 2026-05-05 10:34 | 51.70843 | 15.45623 | 30257 ft | 474 kts | 141° |
| 2026-05-05 10:34 | 51.68431 | 15.49234 | 30674 ft | 473 kts | 141° |
| 2026-05-05 10:34 | 51.66018 | 15.52844 | 31131 ft | 472 kts | 141° |
| 2026-05-05 10:35 | 51.63619 | 15.56434 | 31580 ft | 470 kts | 141° |
| 2026-05-05 10:35 | 51.61226 | 15.60008 | 32057 ft | 469 kts | 141° |
| 2026-05-05 10:35 | 51.58832 | 15.63570 | 32515 ft | 468 kts | 141° |
| 2026-05-05 10:35 | 51.56445 | 15.67107 | 32987 ft | 466 kts | 141° |
| 2026-05-05 10:36 | 51.54065 | 15.70628 | 33440 ft | 465 kts | 141° |
| 2026-05-05 10:36 | 51.51691 | 15.74138 | 33896 ft | 463 kts | 141° |
| 2026-05-05 10:36 | 51.49324 | 15.77638 | 34278 ft | 462 kts | 141° |
| 2026-05-05 10:36 | 51.46963 | 15.81124 | 34634 ft | 461 kts | 141° |
| 2026-05-05 10:37 | 51.44593 | 15.84609 | 34815 ft | 462 kts | 141° |
| 2026-05-05 10:37 | 51.42237 | 15.88071 | 34862 ft | 457 kts | 141° |
| 2026-05-05 10:37 | 51.37566 | 15.94927 | 34864 ft | 454 kts | 141° |
| 2026-05-05 10:38 | 51.32937 | 16.01705 | 34860 ft | 454 kts | 141° |
| 2026-05-05 10:38 | 51.28276 | 16.08504 | 34857 ft | 453 kts | 141° |
| 2026-05-05 10:39 | 51.23612 | 16.15284 | 34856 ft | 453 kts | 141° |
| 2026-05-05 10:39 | 51.18950 | 16.22054 | 34852 ft | 453 kts | 141° |
| 2026-05-05 10:40 | 51.14282 | 16.28800 | 34845 ft | 453 kts | 141° |
| 2026-05-05 10:40 | 51.09613 | 16.35539 | 34840 ft | 453 kts | 141° |
| 2026-05-05 10:41 | 51.04946 | 16.42266 | 34842 ft | 453 kts | 141° |
| 2026-05-05 10:41 | 51.00271 | 16.48982 | 34838 ft | 453 kts | 141° |
| 2026-05-05 10:42 | 50.93254 | 16.59028 | 34841 ft | 453 kts | 141° |
| 2026-05-05 10:43 | 50.88570 | 16.65689 | 34844 ft | 452 kts | 141° |
| 2026-05-05 10:43 | 50.83886 | 16.72328 | 34843 ft | 452 kts | 141° |
| 2026-05-05 10:44 | 50.79205 | 16.78963 | 34845 ft | 452 kts | 141° |
| 2026-05-05 10:44 | 50.74524 | 16.85581 | 34843 ft | 452 kts | 141° |
| 2026-05-05 10:45 | 50.69836 | 16.92190 | 34842 ft | 451 kts | 141° |
| 2026-05-05 10:45 | 50.65149 | 16.98775 | 34842 ft | 451 kts | 141° |
| 2026-05-05 10:46 | 50.60466 | 17.05337 | 34845 ft | 450 kts | 141° |
| 2026-05-05 10:46 | 50.55811 | 17.11835 | 34846 ft | 450 kts | 141° |
| 2026-05-05 10:47 | 50.51127 | 17.18352 | 34851 ft | 449 kts | 142° |
| 2026-05-05 10:47 | 50.46440 | 17.24848 | 34862 ft | 449 kts | 141° |
| 2026-05-05 10:48 | 50.41770 | 17.31333 | 34857 ft | 448 kts | 141° |
| 2026-05-05 10:48 | 50.37093 | 17.37791 | 34855 ft | 448 kts | 142° |
| 2026-05-05 10:49 | 50.32422 | 17.44229 | 34862 ft | 447 kts | 142° |
| 2026-05-05 10:49 | 50.27526 | 17.50153 | 34861 ft | 441 kts | 154° |
| 2026-05-05 10:50 | 50.21870 | 17.53530 | 34870 ft | 433 kts | 171° |
| 2026-05-05 10:50 | 50.15986 | 17.55594 | 34870 ft | 433 kts | 170° |
| 2026-05-05 10:51 | 50.10144 | 17.57672 | 34862 ft | 433 kts | 170° |
| 2026-05-05 10:51 | 50.04264 | 17.59770 | 34867 ft | 433 kts | 170° |
| 2026-05-05 10:52 | 49.98381 | 17.61850 | 34872 ft | 433 kts | 170° |
| 2026-05-05 10:52 | 49.92498 | 17.63919 | 34872 ft | 433 kts | 170° |
| 2026-05-05 10:53 | 49.86619 | 17.65985 | 34877 ft | 433 kts | 170° |
| 2026-05-05 10:53 | 49.80735 | 17.68049 | 34872 ft | 433 kts | 170° |
| 2026-05-05 10:54 | 49.74854 | 17.70102 | 34871 ft | 433 kts | 170° |
| 2026-05-05 10:54 | 49.68967 | 17.72156 | 34872 ft | 433 kts | 170° |
| 2026-05-05 10:55 | 49.63091 | 17.74211 | 34878 ft | 433 kts | 170° |
| 2026-05-05 10:55 | 49.57209 | 17.76252 | 34880 ft | 433 kts | 171° |
| 2026-05-05 10:56 | 49.51329 | 17.78278 | 34882 ft | 433 kts | 171° |
| 2026-05-05 10:56 | 49.45458 | 17.80314 | 34882 ft | 433 kts | 170° |
| 2026-05-05 10:57 | 49.39586 | 17.82349 | 34887 ft | 433 kts | 170° |
| 2026-05-05 10:57 | 49.33709 | 17.84367 | 34881 ft | 433 kts | 171° |
| 2026-05-05 10:57 | 49.30769 | 17.85369 | 34670 ft | 433 kts | 170° |
| 2026-05-05 10:58 | 49.27834 | 17.86372 | 34425 ft | 432 kts | 171° |
| 2026-05-05 10:58 | 49.24935 | 17.87365 | 34186 ft | 432 kts | 170° |
| 2026-05-05 10:58 | 49.22005 | 17.88367 | 33949 ft | 432 kts | 170° |
| 2026-05-05 10:58 | 49.19077 | 17.89364 | 33671 ft | 432 kts | 171° |
| 2026-05-05 10:59 | 49.16136 | 17.90362 | 33417 ft | 432 kts | 170° |
| 2026-05-05 10:59 | 49.13205 | 17.91357 | 33132 ft | 432 kts | 170° |
| 2026-05-05 10:59 | 49.10266 | 17.92358 | 32862 ft | 433 kts | 170° |
| 2026-05-05 10:59 | 49.07330 | 17.93356 | 32591 ft | 433 kts | 170° |
| 2026-05-05 11:00 | 49.04378 | 17.94358 | 32318 ft | 434 kts | 170° |
| 2026-05-05 11:00 | 49.01419 | 17.95165 | 32055 ft | 431 kts | 177° |
| 2026-05-05 11:00 | 48.98431 | 17.95580 | 31798 ft | 431 kts | 177° |
| 2026-05-05 11:00 | 48.95442 | 17.95989 | 31541 ft | 432 kts | 177° |
| 2026-05-05 11:01 | 48.93461 | 17.96262 | 31375 ft | 432 kts | 177° |
| 2026-05-05 11:01 | 48.90466 | 17.96675 | 31121 ft | 432 kts | 177° |
| 2026-05-05 11:01 | 48.87435 | 17.97092 | 30870 ft | 432 kts | 177° |
| 2026-05-05 11:01 | 48.84484 | 17.97498 | 30623 ft | 431 kts | 177° |
| 2026-05-05 11:02 | 48.81500 | 17.97910 | 30371 ft | 430 kts | 176° |
| 2026-05-05 11:02 | 48.78530 | 17.98320 | 30127 ft | 428 kts | 177° |
| 2026-05-05 11:02 | 48.75572 | 17.98725 | 29871 ft | 426 kts | 176° |
| 2026-05-05 11:02 | 48.72624 | 17.99130 | 29542 ft | 423 kts | 177° |
| 2026-05-05 11:03 | 48.69711 | 17.99532 | 28982 ft | 418 kts | 176° |
| 2026-05-05 11:03 | 48.66834 | 17.99930 | 28443 ft | 413 kts | 176° |
| 2026-05-05 11:03 | 48.63985 | 18.00321 | 27896 ft | 409 kts | 177° |
| 2026-05-05 11:03 | 48.61157 | 18.00707 | 27353 ft | 406 kts | 177° |
| 2026-05-05 11:04 | 48.58365 | 18.01087 | 26827 ft | 402 kts | 177° |
| 2026-05-05 11:04 | 48.55583 | 18.01464 | 26291 ft | 399 kts | 177° |
| 2026-05-05 11:04 | 48.52827 | 18.01838 | 25785 ft | 396 kts | 176° |
| 2026-05-05 11:04 | 48.50086 | 18.02209 | 25270 ft | 394 kts | 176° |
| 2026-05-05 11:05 | 48.47363 | 18.02577 | 24763 ft | 392 kts | 177° |
| 2026-05-05 11:05 | 48.44656 | 18.02943 | 24263 ft | 390 kts | 177° |
| 2026-05-05 11:05 | 48.41956 | 18.03310 | 23785 ft | 390 kts | 177° |
| 2026-05-05 11:05 | 48.39253 | 18.03678 | 23259 ft | 389 kts | 177° |
| 2026-05-05 11:06 | 48.36565 | 18.04041 | 22791 ft | 386 kts | 177° |
| 2026-05-05 11:06 | 48.33908 | 18.04405 | 22341 ft | 382 kts | 175° |
| 2026-05-05 11:06 | 48.31313 | 18.05230 | 21881 ft | 381 kts | 164° |
| 2026-05-05 11:06 | 48.28889 | 18.06829 | 21421 ft | 381 kts | 153° |
| 2026-05-05 11:07 | 48.26728 | 18.09139 | 20950 ft | 382 kts | 141° |
| 2026-05-05 11:07 | 48.24889 | 18.12014 | 20496 ft | 381 kts | 134° |
| 2026-05-05 11:07 | 48.23133 | 18.14967 | 20031 ft | 378 kts | 135° |
| 2026-05-05 11:07 | 48.21384 | 18.17887 | 19583 ft | 374 kts | 135° |
| 2026-05-05 11:08 | 48.19650 | 18.20770 | 19130 ft | 371 kts | 135° |
| 2026-05-05 11:08 | 48.17927 | 18.23628 | 18688 ft | 367 kts | 136° |
| 2026-05-05 11:08 | 48.16221 | 18.26453 | 18236 ft | 364 kts | 136° |
| 2026-05-05 11:08 | 48.14528 | 18.29252 | 17655 ft | 362 kts | 136° |
| 2026-05-05 11:09 | 48.12838 | 18.32051 | 17094 ft | 361 kts | 136° |
| 2026-05-05 11:09 | 48.11187 | 18.34787 | 16606 ft | 357 kts | 136° |
| 2026-05-05 11:09 | 48.09506 | 18.37568 | 16109 ft | 354 kts | 136° |
| 2026-05-05 11:09 | 48.07883 | 18.40254 | 15624 ft | 352 kts | 136° |
| 2026-05-05 11:10 | 48.06249 | 18.42953 | 15145 ft | 348 kts | 136° |
| 2026-05-05 11:10 | 48.04623 | 18.45628 | 14654 ft | 346 kts | 136° |
| 2026-05-05 11:10 | 48.03020 | 18.48264 | 14119 ft | 341 kts | 136° |
| 2026-05-05 11:10 | 48.01435 | 18.50873 | 13616 ft | 338 kts | 136° |
| 2026-05-05 11:11 | 47.99861 | 18.53465 | 13135 ft | 336 kts | 136° |
| 2026-05-05 11:11 | 47.98299 | 18.56034 | 12629 ft | 333 kts | 136° |
| 2026-05-05 11:11 | 47.96609 | 18.58335 | 12124 ft | 326 kts | 147° |
| 2026-05-05 11:11 | 47.94771 | 18.60294 | 11618 ft | 323 kts | 148° |
| 2026-05-05 11:12 | 47.92950 | 18.62234 | 11143 ft | 320 kts | 148° |
| 2026-05-05 11:12 | 47.91145 | 18.64165 | 10662 ft | 319 kts | 148° |
| 2026-05-05 11:12 | 47.89352 | 18.66089 | 10214 ft | 316 kts | 148° |
| 2026-05-05 11:12 | 47.87601 | 18.67970 | 10082 ft | 304 kts | 148° |
| 2026-05-05 11:13 | 47.85918 | 18.69777 | 9969 ft | 293 kts | 148° |
| 2026-05-05 11:13 | 47.84293 | 18.71515 | 9839 ft | 282 kts | 148° |
| 2026-05-05 11:13 | 47.82719 | 18.73194 | 9626 ft | 276 kts | 148° |
| 2026-05-05 11:13 | 47.81166 | 18.74850 | 9295 ft | 273 kts | 148° |
| 2026-05-05 11:14 | 47.79620 | 18.76496 | 8964 ft | 272 kts | 148° |
| 2026-05-05 11:14 | 47.78085 | 18.78134 | 8573 ft | 272 kts | 148° |
| 2026-05-05 11:14 | 47.76573 | 18.79748 | 8257 ft | 270 kts | 149° |
| 2026-05-05 11:14 | 47.75015 | 18.81406 | 7701 ft | 277 kts | 149° |
| 2026-05-05 11:15 | 47.73453 | 18.83060 | 7445 ft | 273 kts | 149° |
| 2026-05-05 11:15 | 47.71944 | 18.84665 | 7164 ft | 267 kts | 149° |
| 2026-05-05 11:15 | 47.70440 | 18.86267 | 6724 ft | 266 kts | 149° |
| 2026-05-05 11:15 | 47.68945 | 18.87855 | 6364 ft | 261 kts | 150° |
| 2026-05-05 11:16 | 47.67493 | 18.89399 | 6235 ft | 253 kts | 150° |
| 2026-05-05 11:16 | 47.66076 | 18.90906 | 6108 ft | 249 kts | 149° |
| 2026-05-05 11:16 | 47.64684 | 18.92379 | 5969 ft | 241 kts | 149° |
| 2026-05-05 11:16 | 47.63356 | 18.93786 | 5843 ft | 228 kts | 149° |
| 2026-05-05 11:17 | 47.62096 | 18.95121 | 5611 ft | 218 kts | 150° |
| 2026-05-05 11:17 | 47.60904 | 18.96397 | 5380 ft | 209 kts | 147° |
| 2026-05-05 11:17 | 47.59790 | 18.97865 | 4835 ft | 220 kts | 139° |
| 2026-05-05 11:17 | 47.58724 | 18.99535 | 4444 ft | 225 kts | 137° |
| 2026-05-05 11:18 | 47.57676 | 19.01245 | 4137 ft | 221 kts | 137° |
| 2026-05-05 11:18 | 47.56679 | 19.02881 | 3839 ft | 206 kts | 137° |
| 2026-05-05 11:18 | 47.55740 | 19.04414 | 3568 ft | 196 kts | 137° |
| 2026-05-05 11:18 | 47.54841 | 19.05878 | 3319 ft | 187 kts | 139° |
| 2026-05-05 11:19 | 47.53985 | 19.07272 | 3084 ft | 181 kts | 139° |
| 2026-05-05 11:19 | 47.53143 | 19.08641 | 2847 ft | 179 kts | 138° |
| 2026-05-05 11:19 | 47.52308 | 19.09998 | 2618 ft | 177 kts | 137° |
| 2026-05-05 11:19 | 47.51484 | 19.11339 | 2382 ft | 174 kts | 138° |
| 2026-05-05 11:20 | 47.50695 | 19.12625 | 2153 ft | 163 kts | 138° |
| 2026-05-05 11:20 | 47.49954 | 19.13829 | 1945 ft | 154 kts | 138° |
| 2026-05-05 11:20 | 47.49245 | 19.14980 | 1745 ft | 148 kts | 138° |
| 2026-05-05 11:20 | 47.48569 | 19.16078 | 1564 ft | 141 kts | 137° |
| 2026-05-05 11:21 | 47.47915 | 19.17138 | 1373 ft | 141 kts | 138° |
| 2026-05-05 11:21 | 47.47249 | 19.18216 | 1175 ft | 143 kts | 140° |
| 2026-05-05 11:21 | 47.46583 | 19.19297 | 999 ft | 141 kts | 138° |
| 2026-05-05 11:21 | 47.45933 | 19.20367 | 816 ft | 140 kts | 137° |
| 2026-05-05 11:22 | 47.45286 | 19.21431 | 627 ft | 140 kts | 137° |
| 2026-05-05 11:22 | 47.44627 | 19.22491 | 456 ft | 138 kts | 139° |
| 2026-05-05 11:22 | 47.44070 | 19.23357 | 455 ft | 81 kts | 133° |
| 2026-05-05 11:22 | 47.43755 | 19.23865 | 455 ft | 60 kts | 134° |
| 2026-05-05 11:23 | 47.43484 | 19.24291 | 451 ft | 54 kts | 132° |
| 2026-05-05 11:23 | 47.43254 | 19.24683 | 456 ft | 42 kts | 131° |
| 2026-05-05 11:23 | 47.43118 | 19.24908 | 457 ft | 16 kts | 127° |
| 2026-05-05 11:23 | 47.43096 | 19.25043 | 457 ft | 13 kts | 73° |
| 2026-05-05 11:24 | 47.43164 | 19.25147 | 456 ft | 15 kts | 40° |
| 2026-05-05 11:24 | 47.43248 | 19.25257 | 457 ft | 17 kts | 41° |
| 2026-05-05 11:24 | 47.43340 | 19.25380 | 457 ft | 19 kts | 42° |
| 2026-05-05 11:24 | 47.43440 | 19.25517 | 457 ft | 20 kts | 43° |
| 2026-05-05 11:25 | 47.43549 | 19.25663 | 457 ft | 22 kts | 42° |
| 2026-05-05 11:25 | 47.43666 | 19.25821 | 457 ft | 24 kts | 42° |
| 2026-05-05 11:25 | 47.43731 | 19.25925 | 457 ft | 11 kts | 70° |
| 2026-05-05 11:25 | 47.43701 | 19.26030 | 457 ft | 12 kts | 135° |
| 2026-05-05 11:26 | 47.43673 | 19.26153 | 457 ft | 14 kts | 84° |
| 2026-05-05 11:26 | 47.43676 | 19.26308 | 458 ft | 16 kts | 103° |
| 2026-05-05 11:26 | 47.43607 | 19.26443 | 456 ft | 17 kts | 133° |
| 2026-05-05 11:26 | 47.43522 | 19.26582 | 458 ft | 19 kts | 133° |
| 2026-05-05 11:27 | 47.43434 | 19.26723 | 458 ft | 16 kts | 132° |
| 2026-05-05 11:27 | 47.43384 | 19.26804 | 458 ft | 7 kts | 131° |
| 2026-05-05 11:27 | 47.43350 | 19.26805 | 458 ft | 6 kts | 216° |
| 2026-05-05 11:27 | 47.43321 | 19.26767 | 457 ft | 0 kts | 221° |